Time;durP1;ratioP1;P1;durP2;ratioP2;P2;SDS_P1;SDS_P2;PMS_P1;PMS_P2;Temp;Humidity;BMP_temperature;BMP_pressure;BME280_temperature;BME280_humidity;BME280_pressure;Samples;Min_cycle;Max_cycle;Signal;HPM_P1;HPM_P2
2023/12/02 00:01:20;;;;;;;59.38;20.63;;;-0.10;99.90;;;;;;4970921;28;20038;-78
2023/12/02 00:03:45;;;;;;;58.97;20.25;;;0.00;99.90;;;;;;4956074;28;20038;-78
2023/12/02 00:06:11;;;;;;;60.90;18.75;;;0.10;99.90;;;;;;4955873;28;20027;-78
2023/12/02 00:08:37;;;;;;;48.95;14.82;;;0.90;99.90;;;;;;4955835;28;20042;-78
2023/12/02 00:11:03;;;;;;;58.33;17.80;;;0.00;99.90;;;;;;4970698;28;20066;-77
2023/12/02 00:13:29;;;;;;;56.10;17.05;;;0.00;99.90;;;;;;4955822;28;20086;-78
2023/12/02 00:15:54;;;;;;;47.13;14.48;;;0.00;99.90;;;;;;4955853;28;20027;-79
2023/12/02 00:18:20;;;;;;;57.17;17.40;;;0.20;99.90;;;;;;4954461;28;20032;-78
2023/12/02 00:20:46;;;;;;;75.70;20.10;;;0.10;99.90;;;;;;4955782;28;20034;-78
2023/12/02 00:23:11;;;;;;;84.75;20.95;;;1.40;99.90;;;;;;4954856;28;20032;-78
2023/12/02 00:25:37;;;;;;;64.63;19.75;;;0.20;99.90;;;;;;4955776;28;20036;-78
2023/12/02 00:28:03;;;;;;;54.25;16.35;;;0.10;99.90;;;;;;4956003;28;20031;-77
2023/12/02 00:30:29;;;;;;;60.33;17.95;;;0.00;99.90;;;;;;4955468;28;20027;-78
2023/12/02 00:32:55;;;;;;;60.70;21.50;;;0.10;99.90;;;;;;4954328;28;20027;-78
2023/12/02 00:35:20;;;;;;;51.13;16.98;;;0.00;99.90;;;;;;4970383;28;20027;-78
2023/12/02 00:37:46;;;;;;;65.63;20.52;;;0.00;99.90;;;;;;4970340;28;20019;-78
2023/12/02 00:40:12;;;;;;;43.30;12.68;;;0.00;99.90;;;;;;4954341;28;20035;-78
2023/12/02 00:42:37;;;;;;;43.63;14.15;;;-0.20;99.90;;;;;;4954211;28;20035;-78
2023/12/02 00:45:03;;;;;;;81.85;19.25;;;0.80;99.90;;;;;;4970219;28;20482;-77
2023/12/02 00:47:29;;;;;;;46.75;15.02;;;-0.20;99.90;;;;;;4954078;28;20567;-80
2023/12/02 00:49:55;;;;;;;35.35;12.20;;;0.00;99.90;;;;;;4955361;28;20114;-78
2023/12/02 00:52:20;;;;;;;48.78;16.63;;;-0.10;99.90;;;;;;4955286;28;20050;-77
2023/12/02 00:54:46;;;;;;;50.05;17.00;;;-0.10;99.90;;;;;;4938102;28;20567;-77
2023/12/02 00:57:12;;;;;;;51.03;17.67;;;-0.10;99.90;;;;;;4938287;28;20422;-77
2023/12/02 00:59:37;;;;;;;46.78;16.25;;;0.30;99.90;;;;;;4938219;28;20117;-77
2023/12/02 01:02:03;;;;;;;48.67;17.73;;;-0.20;99.90;;;;;;4955200;28;20019;-78
2023/12/02 01:04:29;;;;;;;46.97;18.05;;;-0.10;99.90;;;;;;4938142;28;20050;-77
2023/12/02 01:06:54;;;;;;;47.65;18.75;;;-0.10;99.90;;;;;;4937817;29;20073;-77
2023/12/02 01:09:21;;;;;;;26.10;11.13;;;-0.20;99.90;;;;;;4955237;28;20489;-78
2023/12/02 01:11:46;;;;;;;24.10;10.00;;;-0.20;99.90;;;;;;4938050;28;20445;-77
2023/12/02 01:14:12;;;;;;;53.65;15.75;;;-0.20;99.90;;;;;;4937906;28;20158;-77
2023/12/02 01:16:38;;;;;;;54.78;18.65;;;-0.20;99.90;;;;;;4957485;28;20320;-77
2023/12/02 01:19:03;;;;;;;58.08;17.90;;;-0.30;99.90;;;;;;4955262;28;20033;-77
2023/12/02 01:21:29;;;;;;;50.17;16.80;;;-0.10;99.90;;;;;;4955085;28;20481;-77
2023/12/02 01:23:55;;;;;;;49.03;16.83;;;-0.20;99.90;;;;;;4937890;29;20024;-77
2023/12/02 01:26:21;;;;;;;51.33;12.88;;;0.00;99.90;;;;;;4954914;28;20358;-77
2023/12/02 01:28:47;;;;;;;51.72;17.00;;;-0.20;99.90;;;;;;4954785;28;20544;-77
2023/12/02 01:31:12;;;;;;;71.30;25.13;;;0.10;99.90;;;;;;4937792;28;20520;-77
2023/12/02 01:33:38;;;;;;;48.55;15.13;;;-0.30;99.90;;;;;;4938055;29;20051;-77
2023/12/02 01:36:04;;;;;;;64.18;18.55;;;0.20;99.90;;;;;;4941412;29;20020;-77
2023/12/02 01:38:30;;;;;;;29.42;11.30;;;-0.20;99.90;;;;;;4941362;29;20384;-76
2023/12/02 01:40:55;;;;;;;41.70;15.75;;;-0.20;99.90;;;;;;4958561;28;20031;-77
2023/12/02 01:43:25;;;;;;;39.78;12.82;;;-0.20;99.90;;;;;;4958462;28;20030;-77
2023/12/02 01:45:53;;;;;;;46.33;15.18;;;-0.20;99.90;;;;;;4941091;28;20431;-79
2023/12/02 01:48:20;;;;;;;65.45;21.85;;;0.50;99.90;;;;;;4958528;28;20047;-76
2023/12/02 01:50:46;;;;;;;59.45;20.38;;;0.90;99.90;;;;;;4940944;28;20027;-77
2023/12/02 01:53:12;;;;;;;51.88;16.38;;;-0.10;99.90;;;;;;4958371;28;20023;-77
2023/12/02 01:55:38;;;;;;;74.95;20.23;;;-0.30;99.90;;;;;;4958293;28;20042;-76
2023/12/02 01:58:03;;;;;;;74.85;20.45;;;-0.20;99.90;;;;;;4940996;29;20027;-76
2023/12/02 02:00:29;;;;;;;51.72;16.98;;;-0.20;99.90;;;;;;4958034;28;20042;-76
2023/12/02 02:02:54;;;;;;;64.40;17.88;;;-0.20;99.90;;;;;;4958014;28;20027;-76
2023/12/02 02:05:20;;;;;;;98.68;24.65;;;-0.30;99.90;;;;;;4957966;28;20033;-76
2023/12/02 02:07:46;;;;;;;63.33;15.82;;;-0.20;99.90;;;;;;4957911;28;20027;-76
2023/12/02 02:10:12;;;;;;;86.90;25.45;;;-0.30;99.90;;;;;;4957979;28;20035;-76
2023/12/02 02:12:37;;;;;;;76.22;18.45;;;-0.30;99.90;;;;;;4957913;28;20038;-76
2023/12/02 02:15:03;;;;;;;106.70;24.88;;;-0.30;99.90;;;;;;4957873;28;20031;-76
2023/12/02 02:17:29;;;;;;;82.18;24.65;;;-0.30;99.90;;;;;;4940549;28;20055;-76
2023/12/02 02:19:54;;;;;;;112.80;32.83;;;-0.20;99.90;;;;;;4940461;29;20080;-76
2023/12/02 02:22:20;;;;;;;65.50;22.67;;;-0.40;99.90;;;;;;4957894;28;20480;-76
2023/12/02 02:24:46;;;;;;;65.28;22.33;;;-0.40;99.90;;;;;;4940431;29;20477;-76
2023/12/02 02:27:11;;;;;;;77.20;25.08;;;-0.40;99.90;;;;;;4957762;28;20077;-76
2023/12/02 02:29:37;;;;;;;56.45;19.48;;;-0.40;99.90;;;;;;4940280;29;20187;-76
2023/12/02 02:32:03;;;;;;;56.60;16.50;;;-0.40;99.90;;;;;;4940589;29;20027;-76
2023/12/02 02:34:29;;;;;;;63.40;21.85;;;-0.40;99.90;;;;;;4940336;29;20510;-76
2023/12/02 02:36:54;;;;;;;59.22;19.75;;;-0.40;99.90;;;;;;4940144;28;20027;-76
2023/12/02 02:39:20;;;;;;;57.70;20.20;;;0.40;99.90;;;;;;4957336;28;20023;-75
2023/12/02 02:41:46;;;;;;;33.95;14.45;;;-0.50;99.90;;;;;;4940169;29;20058;-76
2023/12/02 02:44:11;;;;;;;38.95;13.93;;;-0.40;99.90;;;;;;4957479;28;20539;-76
2023/12/02 02:46:37;;;;;;;56.78;19.60;;;-0.20;99.90;;;;;;4956403;28;20381;-75
2023/12/02 02:49:02;;;;;;;25.10;10.82;;;-0.10;99.90;;;;;;4957149;28;20388;-76
2023/12/02 02:51:28;;;;;;;28.35;13.82;;;-0.40;99.90;;;;;;4957213;28;20055;-75
2023/12/02 02:53:54;;;;;;;27.52;14.25;;;-0.50;99.90;;;;;;4957278;28;20031;-75
2023/12/02 02:56:20;;;;;;;39.22;18.02;;;-0.50;99.90;;;;;;4957005;28;20103;-76
2023/12/02 02:58:46;;;;;;;49.88;19.50;;;-0.40;99.90;;;;;;4939836;28;20023;-75
2023/12/02 03:01:12;;;;;;;42.30;16.15;;;-0.60;99.90;;;;;;4957336;28;20584;-75
2023/12/02 03:03:39;;;;;;;22.73;8.75;;;0.20;99.90;;;;;;4940052;28;20143;-76
2023/12/02 03:06:05;;;;;;;38.28;14.00;;;-0.50;99.90;;;;;;4957407;28;20023;-76
2023/12/02 03:08:31;;;;;;;43.28;17.67;;;-0.60;99.90;;;;;;4957343;28;20035;-78
2023/12/02 03:10:56;;;;;;;43.30;15.63;;;-0.30;99.90;;;;;;4957019;28;20034;-77
2023/12/02 03:13:22;;;;;;;58.38;17.23;;;-0.60;99.90;;;;;;4939641;29;20175;-75
2023/12/02 03:15:48;;;;;;;42.30;15.85;;;-0.20;99.90;;;;;;4956785;28;20020;-76
2023/12/02 03:18:13;;;;;;;30.70;12.75;;;-0.60;99.90;;;;;;4956708;28;20028;-75
2023/12/02 03:20:39;;;;;;;36.17;13.70;;;-0.60;99.90;;;;;;4956625;28;20059;-75
2023/12/02 03:23:05;;;;;;;31.73;11.57;;;-0.40;99.90;;;;;;4956779;28;20451;-78
2023/12/02 03:25:31;;;;;;;30.55;11.88;;;-0.60;99.90;;;;;;4956764;28;20034;-75
2023/12/02 03:27:56;;;;;;;41.15;16.83;;;-0.50;99.90;;;;;;4956445;28;20062;-77
2023/12/02 03:30:22;;;;;;;31.77;14.48;;;0.30;99.90;;;;;;4939329;28;20023;-76
2023/12/02 03:32:48;;;;;;;36.55;15.25;;;-0.70;99.90;;;;;;4939231;29;20024;-75
2023/12/02 03:35:14;;;;;;;26.70;12.00;;;-0.60;99.90;;;;;;4956395;28;20090;-76
2023/12/02 03:37:39;;;;;;;14.63;7.57;;;-0.70;99.90;;;;;;4939323;29;20424;-75
2023/12/02 03:40:07;;;;;;;31.30;12.45;;;-0.70;99.90;;;;;;4939313;28;20067;-76
2023/12/02 03:42:33;;;;;;;31.33;13.40;;;-0.70;99.90;;;;;;4956386;28;20396;-76
2023/12/02 03:44:58;;;;;;;37.33;16.08;;;0.10;99.90;;;;;;4956178;28;20543;-77
2023/12/02 03:47:24;;;;;;;20.00;9.93;;;-0.10;99.90;;;;;;4939171;29;20480;-76
2023/12/02 03:49:50;;;;;;;32.45;12.48;;;-0.80;99.90;;;;;;4956105;28;20039;-75
2023/12/02 03:52:15;;;;;;;41.50;15.02;;;-0.30;99.90;;;;;;4955766;28;20058;-75
2023/12/02 03:54:41;;;;;;;35.70;15.00;;;-0.50;99.90;;;;;;4955991;28;20027;-75
2023/12/02 03:57:06;;;;;;;33.88;15.98;;;-0.70;99.90;;;;;;4955944;28;20533;-76
2023/12/02 03:59:32;;;;;;;15.30;7.18;;;-0.70;99.90;;;;;;4956095;28;20031;-75
2023/12/02 04:01:58;;;;;;;35.08;14.35;;;0.30;99.90;;;;;;4956200;28;20055;-75
2023/12/02 04:04:24;;;;;;;35.75;15.00;;;-0.90;99.90;;;;;;4938753;29;20078;-75
2023/12/02 04:06:50;;;;;;;35.35;13.50;;;-0.80;99.90;;;;;;4938807;29;20353;-75
2023/12/02 04:09:18;;;;;;;41.45;16.38;;;-0.70;99.90;;;;;;4955782;28;20043;-75
2023/12/02 04:11:47;;;;;;;35.75;15.70;;;-0.80;99.90;;;;;;4955782;28;20023;-76
2023/12/02 04:14:13;;;;;;;42.27;15.97;;;-0.70;99.90;;;;;;4955883;28;20539;-77
2023/12/02 04:16:42;;;;;;;37.33;15.10;;;-0.70;99.90;;;;;;4955713;28;20259;-75
2023/12/02 04:19:09;;;;;;;27.63;10.00;;;-0.80;99.90;;;;;;4955798;28;20059;-76
2023/12/02 04:21:36;;;;;;;35.10;12.73;;;-0.70;99.90;;;;;;4938552;28;20041;-76
2023/12/02 04:24:02;;;;;;;28.20;12.80;;;-0.40;99.90;;;;;;4954372;28;20383;-78
2023/12/02 04:26:28;;;;;;;31.15;12.70;;;0.10;99.90;;;;;;4955564;28;20031;-77
2023/12/02 04:28:54;;;;;;;32.63;12.13;;;-0.80;99.90;;;;;;4938300;29;20035;-76
2023/12/02 04:31:20;;;;;;;36.00;14.27;;;-0.70;99.90;;;;;;4955911;28;20027;-75
2023/12/02 04:33:46;;;;;;;30.27;13.23;;;-0.70;99.90;;;;;;4955633;28;20031;-77
2023/12/02 04:36:11;;;;;;;34.03;12.32;;;-0.50;99.90;;;;;;4938343;28;20027;-76
2023/12/02 04:38:37;;;;;;;15.65;8.43;;;-0.90;99.90;;;;;;4955576;28;20077;-77
2023/12/02 04:41:03;;;;;;;37.85;13.90;;;-0.90;99.90;;;;;;4955494;28;20019;-77
2023/12/02 04:43:30;;;;;;;21.08;10.32;;;-0.90;99.90;;;;;;4938227;28;20027;-76
2023/12/02 04:45:55;;;;;;;23.40;9.10;;;-0.90;99.90;;;;;;4955338;28;20030;-79
2023/12/02 04:48:21;;;;;;;33.58;15.68;;;-0.80;99.90;;;;;;4955400;28;20031;-76
2023/12/02 04:50:47;;;;;;;36.88;12.77;;;-0.70;99.90;;;;;;4938019;28;20038;-75
2023/12/02 04:53:13;;;;;;;25.13;10.70;;;-0.60;99.90;;;;;;4938189;28;20118;-75
2023/12/02 04:55:39;;;;;;;27.55;11.68;;;-0.20;99.90;;;;;;4938192;29;20023;-75
2023/12/02 04:58:05;;;;;;;34.72;12.82;;;-0.90;99.90;;;;;;4955378;28;20035;-76
2023/12/02 05:00:31;;;;;;;39.90;17.48;;;-0.80;99.90;;;;;;4955467;28;20019;-75
2023/12/02 05:02:56;;;;;;;31.15;13.65;;;-0.90;99.90;;;;;;4938066;29;20104;-77
2023/12/02 05:05:22;;;;;;;34.95;13.82;;;-0.90;99.90;;;;;;4955140;28;20042;-75
2023/12/02 05:07:48;;;;;;;15.88;10.13;;;-0.70;99.90;;;;;;4955136;28;20381;-76
2023/12/02 05:10:13;;;;;;;25.90;11.30;;;-0.90;99.90;;;;;;4941057;28;20070;-75
2023/12/02 05:12:40;;;;;;;31.17;11.55;;;0.50;99.90;;;;;;4959029;28;20031;-77
2023/12/02 05:15:06;;;;;;;31.27;12.60;;;-1.00;99.90;;;;;;4941790;29;20031;-76
2023/12/02 05:17:32;;;;;;;33.85;11.77;;;-1.00;99.90;;;;;;4959076;28;20036;-76
2023/12/02 05:19:58;;;;;;;34.47;15.00;;;-1.00;99.90;;;;;;4959090;28;20030;-76
2023/12/02 05:22:23;;;;;;;32.65;14.70;;;-1.00;99.90;;;;;;4958907;28;20051;-76
2023/12/02 05:24:49;;;;;;;12.75;6.80;;;0.20;99.90;;;;;;4941469;28;20432;-76
2023/12/02 05:27:15;;;;;;;19.42;7.78;;;-0.40;99.90;;;;;;4941585;28;20436;-77
2023/12/02 05:29:41;;;;;;;18.23;8.65;;;0.00;99.90;;;;;;4959034;28;20480;-76
2023/12/02 05:32:06;;;;;;;32.30;12.70;;;-0.60;99.90;;;;;;4943019;29;20102;-76
2023/12/02 05:34:33;;;;;;;29.33;12.90;;;-0.50;99.90;;;;;;4960439;28;21112;-75
2023/12/02 05:36:59;;;;;;;23.05;9.80;;;-1.10;99.90;;;;;;4941407;28;20380;-76
2023/12/02 05:39:27;;;;;;;23.58;11.45;;;-1.10;99.90;;;;;;4958526;28;20477;-76
2023/12/02 05:41:52;;;;;;;23.50;10.10;;;0.20;99.90;;;;;;4958690;28;20030;-77
2023/12/02 05:44:19;;;;;;;27.65;11.63;;;0.00;99.90;;;;;;4958492;28;20400;-76
2023/12/02 05:46:44;;;;;;;28.05;11.32;;;-1.10;99.90;;;;;;4941379;29;20053;-75
2023/12/02 05:49:10;;;;;;;15.82;7.13;;;-0.10;99.90;;;;;;4958736;28;20062;-78
2023/12/02 05:51:39;;;;;;;28.08;12.90;;;-1.10;99.90;;;;;;4958418;28;20039;-75
2023/12/02 05:54:08;;;;;;;27.02;10.82;;;-0.90;99.90;;;;;;4958438;28;20031;-75
2023/12/02 05:56:34;;;;;;;;;;;-0.90;99.90;;;;;;4958712;28;20027;-76
2023/12/02 05:58:59;;;;;;;26.05;11.82;;;-0.60;99.90;;;;;;4958258;28;19906;-75
2023/12/02 06:01:25;;;;;;;16.35;7.35;;;-0.10;99.90;;;;;;4958065;28;20483;-75
2023/12/02 06:03:50;;;;;;;14.48;7.43;;;-0.70;99.90;;;;;;4940869;28;20476;-76
2023/12/02 06:06:17;;;;;;;13.07;7.10;;;-0.30;99.90;;;;;;4958227;28;20469;-76
2023/12/02 06:08:43;;;;;;;12.25;6.72;;;-1.20;99.90;;;;;;4958015;28;20039;-76
2023/12/02 06:11:09;;;;;;;14.88;6.65;;;-0.30;99.90;;;;;;4957976;28;20027;-76
2023/12/02 06:13:35;;;;;;;17.90;9.90;;;-0.40;99.90;;;;;;4940704;28;20389;-75
2023/12/02 06:16:00;;;;;;;15.05;7.00;;;-0.90;99.90;;;;;;4940480;29;20020;-76
2023/12/02 06:18:26;;;;;;;11.45;5.80;;;-0.90;99.90;;;;;;4957781;28;20032;-76
2023/12/02 06:20:52;;;;;;;16.40;8.30;;;-1.10;99.90;;;;;;4956436;28;20030;-77
2023/12/02 06:23:18;;;;;;;16.85;7.18;;;-1.10;99.90;;;;;;4957895;28;20039;-75
2023/12/02 06:25:43;;;;;;;20.38;9.43;;;0.10;99.90;;;;;;4940569;28;20031;-76
2023/12/02 06:28:09;;;;;;;19.50;10.55;;;0.00;99.90;;;;;;4957599;28;20031;-75
2023/12/02 06:30:35;;;;;;;16.35;7.65;;;-0.50;99.90;;;;;;4940491;28;20122;-75
2023/12/02 06:33:00;;;;;;;20.45;10.48;;;-0.60;99.90;;;;;;4957534;28;20027;-76
2023/12/02 06:35:26;;;;;;;17.55;8.45;;;-0.10;99.90;;;;;;4940362;29;20042;-75
2023/12/02 06:37:52;;;;;;;20.23;7.60;;;-0.60;99.90;;;;;;4957602;28;20031;-75
2023/12/02 06:40:17;;;;;;;11.77;6.93;;;-1.30;99.90;;;;;;4957408;28;20440;-76
2023/12/02 06:42:43;;;;;;;17.25;7.28;;;-0.40;99.90;;;;;;4957475;28;20027;-75
2023/12/02 06:45:09;;;;;;;13.90;8.23;;;-1.30;99.90;;;;;;4940248;28;20027;-75
2023/12/02 06:47:36;;;;;;;14.30;6.43;;;-1.40;99.90;;;;;;4957428;28;20033;-75
2023/12/02 06:50:03;;;;;;;10.75;5.57;;;-0.70;99.90;;;;;;4957337;28;20503;-75
2023/12/02 06:52:29;;;;;;;10.63;5.28;;;-1.40;99.90;;;;;;4957142;28;20445;-76
2023/12/02 06:54:54;;;;;;;14.88;7.78;;;-0.50;99.90;;;;;;4957424;28;20121;-76
2023/12/02 06:57:20;;;;;;;17.55;7.63;;;-0.10;99.90;;;;;;4957199;28;20478;-81
2023/12/02 06:59:46;;;;;;;11.57;7.45;;;-0.90;99.90;;;;;;4957193;28;20480;-77
2023/12/02 07:02:15;;;;;;;21.17;9.85;;;-1.40;99.90;;;;;;4957107;28;20078;-75
2023/12/02 07:04:40;;;;;;;13.63;6.40;;;-0.30;99.90;;;;;;4957024;28;20041;-75
2023/12/02 07:07:06;;;;;;;18.83;8.10;;;-0.50;99.90;;;;;;4939627;28;20447;-76
2023/12/02 07:09:32;;;;;;;21.00;9.52;;;-0.90;99.90;;;;;;4956790;28;20046;-76
2023/12/02 07:11:57;;;;;;;17.77;7.90;;;-1.40;99.90;;;;;;4956823;28;20049;-78
2023/12/02 07:14:23;;;;;;;19.75;8.38;;;-1.00;99.90;;;;;;4956807;28;20437;-78
2023/12/02 07:16:48;;;;;;;14.50;6.53;;;-1.40;99.90;;;;;;4956855;28;20031;-76
2023/12/02 07:19:14;;;;;;;22.52;11.13;;;-0.50;99.90;;;;;;4939644;28;20120;-75
2023/12/02 07:21:40;;;;;;;19.75;9.55;;;-0.60;99.90;;;;;;4956813;28;20023;-82
2023/12/02 07:24:06;;;;;;;18.15;8.18;;;-0.50;99.90;;;;;;4939718;28;20408;-75
2023/12/02 07:26:31;;;;;;;17.45;7.70;;;-1.50;99.90;;;;;;4956634;28;20480;-75
2023/12/02 07:28:57;;;;;;;21.35;10.50;;;-1.40;99.90;;;;;;4939274;29;20039;-75
2023/12/02 07:31:23;;;;;;;19.50;9.43;;;-2.80;99.90;;;;;;4956224;28;20023;-75
2023/12/02 07:33:48;;;;;;;14.35;6.25;;;-1.40;99.90;;;;;;4956614;28;20107;-75
2023/12/02 07:36:14;;;;;;;21.38;10.07;;;-1.40;99.90;;;;;;4956656;28;20472;-75
2023/12/02 07:38:40;;;;;;;23.58;9.70;;;-0.90;99.90;;;;;;4956507;28;20468;-75
2023/12/02 07:41:10;;;;;;;19.58;11.23;;;-1.50;99.90;;;;;;4956570;28;20074;-74
2023/12/02 07:43:35;;;;;;;;;;;-1.50;99.90;;;;;;4956761;28;20027;-74
2023/12/02 07:46:01;;;;;;;13.25;6.80;;;-0.70;99.90;;;;;;4957835;28;19902;-73
2023/12/02 07:48:27;;;;;;;19.25;9.23;;;-1.50;99.90;;;;;;4966391;28;20322;-74
2023/12/02 07:50:53;;;;;;;21.33;8.57;;;-0.30;99.90;;;;;;4947079;28;20043;-74
2023/12/02 07:53:18;;;;;;;15.85;6.25;;;-1.10;99.90;;;;;;4964277;28;20058;-76
2023/12/02 07:55:44;;;;;;;20.65;9.13;;;-0.60;99.90;;;;;;4943807;28;20043;-76
2023/12/02 07:58:10;;;;;;;23.08;12.35;;;-0.70;99.90;;;;;;4938952;28;20035;-74
2023/12/02 08:00:35;;;;;;;18.45;9.07;;;-1.50;99.90;;;;;;4964620;28;20038;-78
2023/12/02 08:03:01;;;;;;;24.45;10.88;;;-1.20;99.90;;;;;;4958018;28;20193;-74
2023/12/02 08:05:26;;;;;;;17.45;8.45;;;-0.40;99.90;;;;;;4963187;28;20027;-74
2023/12/02 08:07:52;;;;;;;19.08;8.98;;;-1.50;99.90;;;;;;4947496;29;20030;-76
2023/12/02 08:10:19;;;;;;;18.13;8.38;;;-0.30;99.90;;;;;;4962227;28;20047;-75
2023/12/02 08:12:45;;;;;;;18.58;8.25;;;-1.30;99.90;;;;;;4948312;28;20030;-75
2023/12/02 08:15:10;;;;;;;19.35;8.50;;;-1.40;99.90;;;;;;4947493;28;20342;-76
2023/12/02 08:17:36;;;;;;;21.13;10.68;;;-1.10;99.90;;;;;;4966113;28;20019;-75
2023/12/02 08:20:03;;;;;;;26.17;11.52;;;-0.30;99.90;;;;;;4966233;28;20057;-75
2023/12/02 08:22:29;;;;;;;28.50;11.52;;;-1.40;99.90;;;;;;4941100;28;20031;-75
2023/12/02 08:24:55;;;;;;;26.25;12.18;;;-1.30;99.90;;;;;;4955714;28;20030;-75
2023/12/02 08:27:21;;;;;;;19.75;10.27;;;-1.50;99.90;;;;;;4957184;28;20023;-75
2023/12/02 08:29:47;;;;;;;22.58;10.00;;;0.00;99.90;;;;;;4939847;29;20114;-76
2023/12/02 08:32:13;;;;;;;29.60;13.68;;;-1.40;99.90;;;;;;4958946;28;20098;-76
2023/12/02 08:34:38;;;;;;;12.32;7.40;;;-1.40;99.90;;;;;;4941340;29;20543;-75
2023/12/02 08:37:04;;;;;;;7.40;5.13;;;-0.30;99.90;;;;;;4957068;28;20042;-77
2023/12/02 08:39:30;;;;;;;29.33;12.98;;;-1.50;99.90;;;;;;4938462;28;20059;-77
2023/12/02 08:41:55;;;;;;;23.20;11.93;;;-1.50;99.90;;;;;;4955511;28;20030;-76
2023/12/02 08:44:22;;;;;;;23.20;10.93;;;-1.40;99.90;;;;;;4956606;28;20023;-77
2023/12/02 08:46:48;;;;;;;13.68;6.72;;;-0.90;99.90;;;;;;4962241;28;20033;-79
2023/12/02 08:49:14;;;;;;;23.55;12.63;;;-0.50;99.90;;;;;;4959468;28;20440;-76
2023/12/02 08:51:40;;;;;;;21.30;9.93;;;-1.40;99.90;;;;;;4955710;28;20054;-75
2023/12/02 08:54:05;;;;;;;20.73;8.55;;;-1.40;99.90;;;;;;4947500;29;20107;-75
2023/12/02 08:56:31;;;;;;;22.77;9.25;;;-1.50;99.90;;;;;;4965783;28;20056;-76
2023/12/02 08:58:59;;;;;;;31.77;14.25;;;-1.40;99.90;;;;;;4942605;28;20480;-76
2023/12/02 09:01:25;;;;;;;22.52;10.85;;;-1.40;99.90;;;;;;4942828;29;20023;-75
2023/12/02 09:03:50;;;;;;;23.70;10.93;;;-1.50;99.90;;;;;;4965526;28;20058;-77
2023/12/02 09:06:16;;;;;;;22.23;9.27;;;-0.40;99.90;;;;;;4965575;28;20015;-75
2023/12/02 09:08:41;;;;;;;13.05;6.68;;;-1.50;99.90;;;;;;4964463;28;20031;-76
2023/12/02 09:11:07;;;;;;;18.25;9.25;;;-0.90;99.90;;;;;;4965640;28;20019;-78
2023/12/02 09:13:46;;;;;;;20.50;9.50;;;-1.20;99.90;;;;;;4965650;28;20030;-76
2023/12/02 09:16:22;;;;;;;11.70;6.13;;;-1.60;99.90;;;;;;4948453;28;20016;-76
2023/12/02 09:18:48;;;;;;;19.95;10.02;;;-1.60;99.90;;;;;;4948465;29;20094;-75
2023/12/02 09:21:20;;;;;;;17.95;8.45;;;-1.30;99.90;;;;;;4965553;28;20061;-76
2023/12/02 09:23:47;;;;;;;13.32;7.65;;;-1.60;99.90;;;;;;4965476;28;20303;-76
2023/12/02 09:26:40;;;;;;;12.50;7.68;;;-1.70;99.90;;;;;;4959758;28;20031;-76
2023/12/02 09:29:06;;;;;;;17.55;7.88;;;-1.60;99.90;;;;;;4931908;28;20404;-76
2023/12/02 09:31:32;;;;;;;30.92;13.20;;;-0.70;99.90;;;;;;4954985;28;20024;-76
2023/12/02 09:34:00;;;;;;;25.80;11.07;;;-0.90;99.90;;;;;;4953726;28;20039;-76
2023/12/02 09:36:41;;;;;;;21.80;10.93;;;-1.50;99.90;;;;;;4955352;28;20020;-77
2023/12/02 09:39:09;;;;;;;24.80;9.88;;;-0.90;99.90;;;;;;4938030;28;20159;-76
2023/12/02 09:41:45;;;;;;;25.67;12.70;;;-0.40;99.90;;;;;;4960907;28;20027;-76
2023/12/02 09:44:20;;;;;;;20.17;9.55;;;-1.40;99.90;;;;;;4945477;29;20369;-81
2023/12/02 09:47:18;;;;;;;16.92;7.82;;;-1.30;99.90;;;;;;4937866;28;20023;-78
2023/12/02 09:50:02;;;;;;;17.30;7.70;;;-1.30;99.90;;;;;;4954904;28;20087;-76
2023/12/02 09:52:42;;;;;;;18.75;9.32;;;-1.40;99.90;;;;;;4937657;29;20086;-79
2023/12/02 09:55:26;;;;;;;21.42;9.80;;;-1.40;99.90;;;;;;4955818;28;20023;-77
2023/12/02 09:58:19;;;;;;;21.88;9.93;;;-1.40;99.90;;;;;;4958395;28;20023;-78
2023/12/02 10:00:53;;;;;;;23.10;10.32;;;-1.40;99.90;;;;;;4957188;28;20047;-76
2023/12/02 10:03:40;;;;;;;17.17;8.45;;;-1.30;99.90;;;;;;4958198;28;20023;-77
2023/12/02 10:06:36;;;;;;;25.23;10.95;;;-0.70;99.90;;;;;;4958462;28;20027;-78
2023/12/02 10:09:16;;;;;;;18.58;9.32;;;-1.20;99.90;;;;;;4958444;28;20035;-80
2023/12/02 10:12:07;;;;;;;20.73;10.38;;;-1.20;99.90;;;;;;4940796;28;20384;-74
2023/12/02 10:14:36;;;;;;;22.10;10.80;;;-1.30;99.90;;;;;;4957867;28;20472;-78
2023/12/02 10:17:02;;;;;;;23.10;10.60;;;-1.30;99.90;;;;;;4958039;28;20118;-77
2023/12/02 10:20:08;;;;;;;24.73;12.55;;;-0.10;99.90;;;;;;4941462;28;20090;-76
2023/12/02 10:22:42;;;;;;;24.20;10.88;;;-0.90;99.90;;;;;;4916781;29;20063;-80
2023/12/02 10:25:13;;;;;;;26.70;12.30;;;-0.70;99.90;;;;;;4956751;28;20028;-76
2023/12/02 10:27:41;;;;;;;46.65;21.38;;;-0.70;99.90;;;;;;4941299;29;20035;-76
2023/12/02 10:30:15;;;;;;;22.63;11.25;;;-0.60;99.90;;;;;;4940567;28;20113;-76
2023/12/02 10:33:08;;;;;;;21.92;11.20;;;-1.00;99.90;;;;;;4940385;29;20020;-77
2023/12/02 10:35:44;;;;;;;23.38;10.00;;;-1.10;99.90;;;;;;4956430;28;20030;-89
2023/12/02 10:38:25;;;;;;;22.20;9.35;;;-1.20;99.90;;;;;;4957820;28;20082;-78
2023/12/02 10:41:03;;;;;;;17.88;8.98;;;-1.20;99.90;;;;;;4957678;28;20036;-83
2023/12/02 10:43:51;;;;;;;27.05;11.40;;;-1.20;99.90;;;;;;4940378;29;20042;-77
2023/12/02 10:46:17;;;;;;;17.55;8.48;;;-1.40;99.90;;;;;;4957702;28;20034;-75
2023/12/02 10:48:44;;;;;;;22.25;7.82;;;-1.60;99.90;;;;;;4957482;28;20417;-78
2023/12/02 10:51:13;;;;;;;18.23;8.15;;;-1.60;99.90;;;;;;4941652;28;20043;-75
2023/12/02 10:53:42;;;;;;;27.73;13.15;;;-1.90;99.90;;;;;;4956028;28;20039;-74
2023/12/02 10:56:16;;;;;;;18.40;8.77;;;-1.70;99.90;;;;;;4957318;28;20532;-76
2023/12/02 10:58:45;;;;;;;29.38;12.32;;;-1.70;99.90;;;;;;4957267;28;20271;-76
2023/12/02 11:01:14;;;;;;;14.75;7.72;;;-1.50;99.90;;;;;;4956321;28;20023;-76
2023/12/02 11:04:02;;;;;;;20.15;10.27;;;-1.30;99.90;;;;;;4957205;28;20441;-76
2023/12/02 11:06:32;;;;;;;18.63;8.40;;;-1.30;99.90;;;;;;4955115;28;20023;-75
2023/12/02 11:09:30;;;;;;;20.23;9.00;;;-0.60;99.90;;;;;;4956827;28;20182;-75
2023/12/02 11:12:05;;;;;;;20.13;10.27;;;-1.40;99.90;;;;;;4956997;28;20023;-76
2023/12/02 11:14:39;;;;;;;20.67;10.63;;;-1.30;99.90;;;;;;4957063;28;20024;-74
2023/12/02 11:17:07;;;;;;;16.77;8.25;;;-1.20;99.90;;;;;;4957083;28;20035;-77
2023/12/02 11:19:55;;;;;;;19.63;8.83;;;-1.20;99.90;;;;;;4955646;28;20050;-77
2023/12/02 11:22:36;;;;;;;12.25;5.53;;;-1.30;99.90;;;;;;4955610;28;20034;-78
2023/12/02 11:25:26;;;;;;;12.98;5.97;;;-1.40;99.90;;;;;;4956889;28;20031;-78
2023/12/02 11:28:28;;;;;;;14.90;8.23;;;-1.50;99.90;;;;;;4963404;28;20320;-78
2023/12/02 11:31:24;;;;;;;23.20;10.48;;;-1.50;99.90;;;;;;4964150;28;20039;-77
2023/12/02 11:34:21;;;;;;;33.72;13.05;;;-1.50;99.90;;;;;;4963739;28;20034;-78
2023/12/02 11:36:58;;;;;;;28.08;11.85;;;-1.50;99.90;;;;;;4965597;28;20050;-78
2023/12/02 11:39:30;;;;;;;20.90;9.48;;;-1.30;99.90;;;;;;4966774;28;20031;-77
2023/12/02 11:42:00;;;;;;;25.65;10.98;;;-1.20;99.90;;;;;;4965638;28;20026;-79
2023/12/02 11:45:01;;;;;;;29.85;12.75;;;-1.20;99.90;;;;;;4965635;28;20019;-77
2023/12/02 11:47:42;;;;;;;37.25;16.10;;;-1.00;99.90;;;;;;4965605;28;20046;-77
2023/12/02 11:50:38;;;;;;;26.95;12.70;;;-1.00;99.90;;;;;;4965419;28;20034;-76
2023/12/02 11:53:12;;;;;;;29.20;11.80;;;-0.90;99.90;;;;;;4965472;28;20066;-76
2023/12/02 11:56:02;;;;;;;21.63;9.95;;;-1.00;99.90;;;;;;4949442;29;20059;-76
2023/12/02 11:58:49;;;;;;;22.50;9.80;;;-1.00;99.90;;;;;;4948787;29;20030;-76
2023/12/02 12:01:51;;;;;;;19.58;10.23;;;-1.10;99.90;;;;;;4961793;28;20026;-76
2023/12/02 12:04:31;;;;;;;23.65;11.48;;;-1.20;99.90;;;;;;4965227;28;20026;-76
2023/12/02 12:07:03;;;;;;;23.05;10.18;;;-1.10;99.90;;;;;;4947499;29;20023;-76
2023/12/02 12:09:43;;;;;;;19.92;9.38;;;-1.20;99.90;;;;;;4946050;28;20031;-78
2023/12/02 12:12:11;;;;;;;20.27;10.50;;;-1.30;99.90;;;;;;4948818;28;20023;-78
2023/12/02 12:14:39;;;;;;;20.45;10.48;;;-1.50;99.90;;;;;;4957656;28;20477;-90
2023/12/02 12:17:05;;;;;;;19.92;8.80;;;-1.60;99.90;;;;;;4943767;29;20023;-82
2023/12/02 12:19:30;;;;;;;21.92;10.73;;;-1.70;99.90;;;;;;4939670;28;20031;-78
2023/12/02 12:21:56;;;;;;;20.52;9.80;;;-0.90;99.90;;;;;;4956227;28;20034;-78
2023/12/02 12:24:22;;;;;;;25.58;11.07;;;-1.70;99.90;;;;;;4938660;29;20362;-80
2023/12/02 12:26:51;;;;;;;20.55;8.98;;;-0.40;99.90;;;;;;4941597;29;20083;-76
2023/12/02 12:29:17;;;;;;;16.60;8.70;;;-1.40;99.90;;;;;;4955745;28;20118;-79
2023/12/02 12:31:42;;;;;;;16.60;8.07;;;-1.50;99.90;;;;;;4955687;28;20058;-78
2023/12/02 12:34:12;;;;;;;18.25;8.57;;;-1.40;99.90;;;;;;4938653;29;20031;-77
2023/12/02 12:36:40;;;;;;;19.38;9.23;;;-1.20;99.90;;;;;;4955467;28;20392;-77
2023/12/02 12:39:07;;;;;;;17.05;8.80;;;-1.20;99.90;;;;;;4938250;28;20023;-77
2023/12/02 12:41:36;;;;;;;18.70;8.35;;;-1.20;99.90;;;;;;4938147;29;20031;-77